sensor_id;sensor_type;location;lat;lon;timestamp;P1;durP1;ratioP1;P2;durP2;ratioP2
65387;SDS011;51992;53.528;49.474;2024-03-02T00:00:19;14.38;;;10.40;;
65387;SDS011;51992;53.528;49.474;2024-03-02T00:02:47;14.38;;;9.57;;
65387;SDS011;51992;53.528;49.474;2024-03-02T00:05:13;14.73;;;10.65;;
65387;SDS011;51992;53.528;49.474;2024-03-02T00:07:43;16.33;;;10.02;;
65387;SDS011;51992;53.528;49.474;2024-03-02T00:10:10;14.18;;;10.43;;
65387;SDS011;51992;53.528;49.474;2024-03-02T00:12:36;14.68;;;10.23;;
65387;SDS011;51992;53.528;49.474;2024-03-02T00:15:04;15.15;;;10.50;;
65387;SDS011;51992;53.528;49.474;2024-03-02T00:17:30;13.38;;;9.98;;
65387;SDS011;51992;53.528;49.474;2024-03-02T00:19:56;17.52;;;10.02;;
65387;SDS011;51992;53.528;49.474;2024-03-02T00:22:22;14.73;;;10.20;;
65387;SDS011;51992;53.528;49.474;2024-03-02T00:24:48;15.45;;;10.40;;
65387;SDS011;51992;53.528;49.474;2024-03-02T00:27:14;14.93;;;10.73;;
65387;SDS011;51992;53.528;49.474;2024-03-02T00:29:40;15.05;;;10.00;;
65387;SDS011;51992;53.528;49.474;2024-03-02T00:32:12;13.82;;;10.07;;
65387;SDS011;51992;53.528;49.474;2024-03-02T00:34:38;14.07;;;9.98;;
65387;SDS011;51992;53.528;49.474;2024-03-02T00:37:04;18.23;;;10.65;;
65387;SDS011;51992;53.528;49.474;2024-03-02T00:39:29;15.20;;;9.93;;
65387;SDS011;51992;53.528;49.474;2024-03-02T00:41:55;13.00;;;9.48;;
65387;SDS011;51992;53.528;49.474;2024-03-02T00:44:21;16.90;;;10.32;;
65387;SDS011;51992;53.528;49.474;2024-03-02T00:46:50;14.25;;;9.65;;
65387;SDS011;51992;53.528;49.474;2024-03-02T00:49:20;13.20;;;9.88;;
65387;SDS011;51992;53.528;49.474;2024-03-02T00:51:47;17.77;;;10.10;;
65387;SDS011;51992;53.528;49.474;2024-03-02T00:54:26;13.32;;;9.65;;
65387;SDS011;51992;53.528;49.474;2024-03-02T00:56:52;13.65;;;9.70;;
65387;SDS011;51992;53.528;49.474;2024-03-02T00:59:20;14.38;;;9.82;;
65387;SDS011;51992;53.528;49.474;2024-03-02T01:01:47;13.95;;;9.73;;
65387;SDS011;51992;53.528;49.474;2024-03-02T01:04:13;15.52;;;10.13;;
65387;SDS011;51992;53.528;49.474;2024-03-02T01:06:39;13.13;;;9.15;;
65387;SDS011;51992;53.528;49.474;2024-03-02T01:09:05;13.65;;;9.77;;
65387;SDS011;51992;53.528;49.474;2024-03-02T01:11:31;12.77;;;9.77;;
65387;SDS011;51992;53.528;49.474;2024-03-02T01:13:57;13.35;;;9.38;;
65387;SDS011;51992;53.528;49.474;2024-03-02T01:16:22;13.45;;;9.68;;
65387;SDS011;51992;53.528;49.474;2024-03-02T01:18:48;14.98;;;10.27;;
65387;SDS011;51992;53.528;49.474;2024-03-02T01:21:14;15.35;;;9.90;;
65387;SDS011;51992;53.528;49.474;2024-03-02T01:23:40;13.35;;;9.52;;
65387;SDS011;51992;53.528;49.474;2024-03-02T01:26:05;13.43;;;9.75;;
65387;SDS011;51992;53.528;49.474;2024-03-02T01:28:32;14.05;;;9.60;;
65387;SDS011;51992;53.528;49.474;2024-03-02T01:30:57;12.55;;;8.90;;
65387;SDS011;51992;53.528;49.474;2024-03-02T01:33:23;12.00;;;9.25;;
65387;SDS011;51992;53.528;49.474;2024-03-02T01:35:49;14.43;;;10.13;;
65387;SDS011;51992;53.528;49.474;2024-03-02T01:38:15;13.02;;;9.77;;
65387;SDS011;51992;53.528;49.474;2024-03-02T01:40:41;13.05;;;9.10;;
65387;SDS011;51992;53.528;49.474;2024-03-02T01:43:07;13.63;;;9.43;;
65387;SDS011;51992;53.528;49.474;2024-03-02T01:45:33;13.32;;;9.77;;
65387;SDS011;51992;53.528;49.474;2024-03-02T01:48:00;13.77;;;9.30;;
65387;SDS011;51992;53.528;49.474;2024-03-02T01:50:27;12.93;;;10.00;;
65387;SDS011;51992;53.528;49.474;2024-03-02T01:52:54;12.40;;;10.07;;
65387;SDS011;51992;53.528;49.474;2024-03-02T01:55:20;12.25;;;8.98;;
65387;SDS011;51992;53.528;49.474;2024-03-02T01:57:46;13.07;;;9.82;;
65387;SDS011;51992;53.528;49.474;2024-03-02T02:00:13;13.10;;;9.57;;
65387;SDS011;51992;53.528;49.474;2024-03-02T02:02:39;16.33;;;10.35;;
65387;SDS011;51992;53.528;49.474;2024-03-02T02:05:05;14.05;;;9.70;;
65387;SDS011;51992;53.528;49.474;2024-03-02T02:07:30;14.57;;;9.93;;
65387;SDS011;51992;53.528;49.474;2024-03-02T02:09:57;14.63;;;9.93;;
65387;SDS011;51992;53.528;49.474;2024-03-02T02:12:23;12.90;;;9.27;;
65387;SDS011;51992;53.528;49.474;2024-03-02T02:14:48;14.48;;;9.90;;
65387;SDS011;51992;53.528;49.474;2024-03-02T02:17:15;14.10;;;9.70;;
65387;SDS011;51992;53.528;49.474;2024-03-02T02:19:41;13.55;;;9.35;;
65387;SDS011;51992;53.528;49.474;2024-03-02T02:22:08;11.65;;;9.15;;
65387;SDS011;51992;53.528;49.474;2024-03-02T02:24:34;13.45;;;9.48;;
65387;SDS011;51992;53.528;49.474;2024-03-02T02:26:59;11.80;;;9.48;;
65387;SDS011;51992;53.528;49.474;2024-03-02T02:29:25;15.52;;;9.85;;
65387;SDS011;51992;53.528;49.474;2024-03-02T02:31:51;13.23;;;9.30;;
65387;SDS011;51992;53.528;49.474;2024-03-02T02:34:17;14.18;;;9.88;;
65387;SDS011;51992;53.528;49.474;2024-03-02T02:36:43;12.13;;;9.15;;
65387;SDS011;51992;53.528;49.474;2024-03-02T02:39:13;13.55;;;10.40;;
65387;SDS011;51992;53.528;49.474;2024-03-02T02:41:40;14.23;;;10.10;;
65387;SDS011;51992;53.528;49.474;2024-03-02T02:44:06;14.23;;;9.88;;
65387;SDS011;51992;53.528;49.474;2024-03-02T02:46:32;15.73;;;9.43;;
65387;SDS011;51992;53.528;49.474;2024-03-02T02:48:58;13.60;;;9.23;;
65387;SDS011;51992;53.528;49.474;2024-03-02T02:51:24;14.88;;;10.50;;
65387;SDS011;51992;53.528;49.474;2024-03-02T02:53:51;15.63;;;9.85;;
65387;SDS011;51992;53.528;49.474;2024-03-02T02:56:16;15.65;;;10.48;;
65387;SDS011;51992;53.528;49.474;2024-03-02T02:58:42;15.25;;;9.65;;
65387;SDS011;51992;53.528;49.474;2024-03-02T03:01:08;14.27;;;10.27;;
65387;SDS011;51992;53.528;49.474;2024-03-02T03:03:34;16.42;;;10.18;;
65387;SDS011;51992;53.528;49.474;2024-03-02T03:06:00;15.38;;;10.50;;
65387;SDS011;51992;53.528;49.474;2024-03-02T03:08:25;16.90;;;10.88;;
65387;SDS011;51992;53.528;49.474;2024-03-02T03:10:51;13.45;;;9.82;;
65387;SDS011;51992;53.528;49.474;2024-03-02T03:13:17;15.48;;;10.82;;
65387;SDS011;51992;53.528;49.474;2024-03-02T03:15:43;14.32;;;10.32;;
65387;SDS011;51992;53.528;49.474;2024-03-02T03:18:08;15.32;;;10.75;;
65387;SDS011;51992;53.528;49.474;2024-03-02T03:20:35;14.35;;;10.18;;
65387;SDS011;51992;53.528;49.474;2024-03-02T03:23:01;14.50;;;10.40;;
65387;SDS011;51992;53.528;49.474;2024-03-02T03:25:27;14.57;;;10.55;;
65387;SDS011;51992;53.528;49.474;2024-03-02T03:27:53;14.43;;;10.30;;
65387;SDS011;51992;53.528;49.474;2024-03-02T03:30:18;14.73;;;10.35;;
65387;SDS011;51992;53.528;49.474;2024-03-02T03:32:44;16.50;;;10.43;;
65387;SDS011;51992;53.528;49.474;2024-03-02T03:35:10;15.02;;;10.52;;
65387;SDS011;51992;53.528;49.474;2024-03-02T03:37:37;15.23;;;10.88;;
65387;SDS011;51992;53.528;49.474;2024-03-02T03:40:03;15.60;;;10.43;;
65387;SDS011;51992;53.528;49.474;2024-03-02T03:42:38;16.17;;;10.38;;
65387;SDS011;51992;53.528;49.474;2024-03-02T03:45:04;15.88;;;10.43;;
65387;SDS011;51992;53.528;49.474;2024-03-02T03:47:33;15.07;;;10.40;;
65387;SDS011;51992;53.528;49.474;2024-03-02T03:49:59;16.23;;;10.63;;
65387;SDS011;51992;53.528;49.474;2024-03-02T03:52:25;16.10;;;11.05;;
65387;SDS011;51992;53.528;49.474;2024-03-02T03:54:51;14.48;;;10.30;;
65387;SDS011;51992;53.528;49.474;2024-03-02T03:57:17;15.75;;;10.88;;
65387;SDS011;51992;53.528;49.474;2024-03-02T03:59:42;14.65;;;10.60;;
65387;SDS011;51992;53.528;49.474;2024-03-02T04:02:08;14.85;;;10.63;;
65387;SDS011;51992;53.528;49.474;2024-03-02T04:04:35;15.52;;;11.65;;
65387;SDS011;51992;53.528;49.474;2024-03-02T04:07:00;17.50;;;11.13;;
65387;SDS011;51992;53.528;49.474;2024-03-02T04:09:26;14.35;;;11.80;;
65387;SDS011;51992;53.528;49.474;2024-03-02T04:11:52;13.95;;;10.73;;
65387;SDS011;51992;53.528;49.474;2024-03-02T04:14:18;12.75;;;10.18;;
65387;SDS011;51992;53.528;49.474;2024-03-02T04:16:44;14.23;;;11.18;;
65387;SDS011;51992;53.528;49.474;2024-03-02T04:19:09;16.65;;;11.35;;
65387;SDS011;51992;53.528;49.474;2024-03-02T04:21:35;16.48;;;10.45;;
65387;SDS011;51992;53.528;49.474;2024-03-02T04:24:01;14.35;;;10.68;;
65387;SDS011;51992;53.528;49.474;2024-03-02T04:26:27;13.63;;;10.60;;
65387;SDS011;51992;53.528;49.474;2024-03-02T04:28:53;16.40;;;10.95;;
65387;SDS011;51992;53.528;49.474;2024-03-02T04:31:19;13.80;;;10.55;;
65387;SDS011;51992;53.528;49.474;2024-03-02T04:33:45;13.60;;;10.50;;
65387;SDS011;51992;53.528;49.474;2024-03-02T04:36:10;14.18;;;10.65;;
65387;SDS011;51992;53.528;49.474;2024-03-02T04:38:37;16.33;;;10.98;;
65387;SDS011;51992;53.528;49.474;2024-03-02T04:41:03;21.42;;;12.85;;
65387;SDS011;51992;53.528;49.474;2024-03-02T04:43:29;14.05;;;10.55;;
65387;SDS011;51992;53.528;49.474;2024-03-02T04:45:55;17.38;;;11.55;;
65387;SDS011;51992;53.528;49.474;2024-03-02T04:48:20;17.55;;;12.48;;
65387;SDS011;51992;53.528;49.474;2024-03-02T04:50:47;20.65;;;14.00;;
65387;SDS011;51992;53.528;49.474;2024-03-02T04:53:13;18.67;;;12.95;;
65387;SDS011;51992;53.528;49.474;2024-03-02T04:55:39;17.90;;;12.25;;
65387;SDS011;51992;53.528;49.474;2024-03-02T04:58:25;17.40;;;11.93;;
65387;SDS011;51992;53.528;49.474;2024-03-02T05:00:50;19.80;;;11.40;;
65387;SDS011;51992;53.528;49.474;2024-03-02T05:03:16;17.90;;;11.93;;
65387;SDS011;51992;53.528;49.474;2024-03-02T05:05:42;17.48;;;11.88;;
65387;SDS011;51992;53.528;49.474;2024-03-02T05:08:07;21.45;;;12.40;;
65387;SDS011;51992;53.528;49.474;2024-03-02T05:10:33;19.35;;;12.98;;
65387;SDS011;51992;53.528;49.474;2024-03-02T05:12:59;23.67;;;13.88;;
65387;SDS011;51992;53.528;49.474;2024-03-02T05:15:25;20.75;;;14.38;;
65387;SDS011;51992;53.528;49.474;2024-03-02T05:17:51;23.23;;;15.10;;
65387;SDS011;51992;53.528;49.474;2024-03-02T05:20:17;22.85;;;14.23;;
65387;SDS011;51992;53.528;49.474;2024-03-02T05:22:42;24.08;;;14.65;;
65387;SDS011;51992;53.528;49.474;2024-03-02T05:25:08;17.95;;;12.95;;
65387;SDS011;51992;53.528;49.474;2024-03-02T05:27:35;15.55;;;12.70;;
65387;SDS011;51992;53.528;49.474;2024-03-02T05:30:01;18.98;;;12.38;;
65387;SDS011;51992;53.528;49.474;2024-03-02T05:32:27;15.40;;;11.63;;
65387;SDS011;51992;53.528;49.474;2024-03-02T05:34:53;17.52;;;12.45;;
65387;SDS011;51992;53.528;49.474;2024-03-02T05:37:22;15.63;;;11.40;;
65387;SDS011;51992;53.528;49.474;2024-03-02T05:39:47;16.02;;;11.30;;
65387;SDS011;51992;53.528;49.474;2024-03-02T05:42:13;16.30;;;11.38;;
65387;SDS011;51992;53.528;49.474;2024-03-02T05:44:40;18.65;;;12.32;;
65387;SDS011;51992;53.528;49.474;2024-03-02T05:47:06;18.30;;;11.93;;
65387;SDS011;51992;53.528;49.474;2024-03-02T05:49:34;20.02;;;13.00;;
65387;SDS011;51992;53.528;49.474;2024-03-02T05:52:00;20.00;;;12.48;;
65387;SDS011;51992;53.528;49.474;2024-03-02T05:54:26;17.15;;;12.20;;
65387;SDS011;51992;53.528;49.474;2024-03-02T05:56:51;19.48;;;12.23;;
65387;SDS011;51992;53.528;49.474;2024-03-02T05:59:17;19.17;;;12.20;;
65387;SDS011;51992;53.528;49.474;2024-03-02T06:01:43;19.05;;;12.15;;
65387;SDS011;51992;53.528;49.474;2024-03-02T06:04:09;22.27;;;12.30;;
65387;SDS011;51992;53.528;49.474;2024-03-02T06:06:36;18.80;;;12.43;;
65387;SDS011;51992;53.528;49.474;2024-03-02T06:09:02;19.52;;;13.45;;
65387;SDS011;51992;53.528;49.474;2024-03-02T06:11:35;18.37;;;13.30;;
65387;SDS011;51992;53.528;49.474;2024-03-02T06:14:02;19.73;;;13.63;;
65387;SDS011;51992;53.528;49.474;2024-03-02T06:16:28;18.42;;;13.95;;
65387;SDS011;51992;53.528;49.474;2024-03-02T06:18:53;21.50;;;14.25;;
65387;SDS011;51992;53.528;49.474;2024-03-02T06:21:19;23.45;;;14.20;;
65387;SDS011;51992;53.528;49.474;2024-03-02T06:23:45;20.13;;;14.30;;
65387;SDS011;51992;53.528;49.474;2024-03-02T06:26:11;27.38;;;20.40;;
65387;SDS011;51992;53.528;49.474;2024-03-02T06:28:37;39.40;;;26.55;;
65387;SDS011;51992;53.528;49.474;2024-03-02T06:31:04;96.70;;;68.38;;
65387;SDS011;51992;53.528;49.474;2024-03-02T06:33:29;99.90;;;73.25;;
65387;SDS011;51992;53.528;49.474;2024-03-02T06:35:55;29.92;;;21.58;;
65387;SDS011;51992;53.528;49.474;2024-03-02T06:38:21;20.30;;;14.63;;
65387;SDS011;51992;53.528;49.474;2024-03-02T06:40:47;18.60;;;13.55;;
65387;SDS011;51992;53.528;49.474;2024-03-02T06:43:12;16.33;;;12.63;;
65387;SDS011;51992;53.528;49.474;2024-03-02T06:45:38;18.48;;;11.75;;
65387;SDS011;51992;53.528;49.474;2024-03-02T06:48:04;21.60;;;12.55;;
65387;SDS011;51992;53.528;49.474;2024-03-02T06:50:30;19.73;;;11.90;;
65387;SDS011;51992;53.528;49.474;2024-03-02T06:52:56;16.75;;;12.10;;
65387;SDS011;51992;53.528;49.474;2024-03-02T06:55:22;19.27;;;12.07;;
65387;SDS011;51992;53.528;49.474;2024-03-02T06:57:50;18.60;;;12.48;;
65387;SDS011;51992;53.528;49.474;2024-03-02T07:00:16;16.95;;;12.27;;
65387;SDS011;51992;53.528;49.474;2024-03-02T07:02:43;18.55;;;12.27;;
65387;SDS011;51992;53.528;49.474;2024-03-02T07:05:10;17.33;;;11.90;;
65387;SDS011;51992;53.528;49.474;2024-03-02T07:07:36;18.65;;;12.38;;
65387;SDS011;51992;53.528;49.474;2024-03-02T07:10:03;18.45;;;12.27;;
65387;SDS011;51992;53.528;49.474;2024-03-02T07:12:28;20.85;;;12.50;;
65387;SDS011;51992;53.528;49.474;2024-03-02T07:14:54;16.17;;;11.85;;
65387;SDS011;51992;53.528;49.474;2024-03-02T07:17:29;15.50;;;11.20;;
65387;SDS011;51992;53.528;49.474;2024-03-02T07:19:56;15.98;;;11.77;;
65387;SDS011;51992;53.528;49.474;2024-03-02T07:22:22;19.08;;;11.48;;
65387;SDS011;51992;53.528;49.474;2024-03-02T07:24:48;17.27;;;12.02;;
65387;SDS011;51992;53.528;49.474;2024-03-02T07:27:16;14.20;;;11.10;;
65387;SDS011;51992;53.528;49.474;2024-03-02T07:29:42;16.50;;;11.38;;
65387;SDS011;51992;53.528;49.474;2024-03-02T07:32:08;21.80;;;12.20;;
65387;SDS011;51992;53.528;49.474;2024-03-02T07:34:34;19.77;;;12.52;;
65387;SDS011;51992;53.528;49.474;2024-03-02T07:37:00;24.90;;;14.38;;
65387;SDS011;51992;53.528;49.474;2024-03-02T07:39:26;20.65;;;14.10;;
65387;SDS011;51992;53.528;49.474;2024-03-02T07:41:52;20.95;;;14.88;;
65387;SDS011;51992;53.528;49.474;2024-03-02T07:44:18;24.30;;;13.65;;
65387;SDS011;51992;53.528;49.474;2024-03-02T07:46:45;23.77;;;14.25;;
65387;SDS011;51992;53.528;49.474;2024-03-02T07:49:20;19.90;;;12.52;;
65387;SDS011;51992;53.528;49.474;2024-03-02T07:51:47;17.58;;;12.10;;
65387;SDS011;51992;53.528;49.474;2024-03-02T07:54:12;17.23;;;12.27;;
65387;SDS011;51992;53.528;49.474;2024-03-02T07:56:38;18.65;;;12.10;;
65387;SDS011;51992;53.528;49.474;2024-03-02T07:59:04;16.63;;;12.23;;
65387;SDS011;51992;53.528;49.474;2024-03-02T08:01:30;17.90;;;11.50;;
65387;SDS011;51992;53.528;49.474;2024-03-02T08:03:57;19.75;;;12.32;;
65387;SDS011;51992;53.528;49.474;2024-03-02T08:06:27;20.17;;;11.85;;
65387;SDS011;51992;53.528;49.474;2024-03-02T08:09:00;17.73;;;11.30;;
65387;SDS011;51992;53.528;49.474;2024-03-02T08:11:26;15.27;;;10.68;;
65387;SDS011;51992;53.528;49.474;2024-03-02T08:13:52;15.32;;;10.00;;
65387;SDS011;51992;53.528;49.474;2024-03-02T08:16:20;13.38;;;8.45;;
65387;SDS011;51992;53.528;49.474;2024-03-02T08:18:47;11.30;;;8.35;;
65387;SDS011;51992;53.528;49.474;2024-03-02T08:21:13;14.43;;;8.68;;
65387;SDS011;51992;53.528;49.474;2024-03-02T08:23:39;27.17;;;10.05;;
65387;SDS011;51992;53.528;49.474;2024-03-02T08:26:06;16.55;;;9.68;;
65387;SDS011;51992;53.528;49.474;2024-03-02T08:28:32;20.33;;;9.88;;
65387;SDS011;51992;53.528;49.474;2024-03-02T08:30:58;14.00;;;9.80;;
65387;SDS011;51992;53.528;49.474;2024-03-02T08:33:24;14.30;;;9.77;;
65387;SDS011;51992;53.528;49.474;2024-03-02T08:35:50;14.30;;;9.43;;
65387;SDS011;51992;53.528;49.474;2024-03-02T08:38:16;13.25;;;8.27;;
65387;SDS011;51992;53.528;49.474;2024-03-02T08:40:41;15.73;;;8.35;;
65387;SDS011;51992;53.528;49.474;2024-03-02T08:43:07;31.65;;;10.75;;
65387;SDS011;51992;53.528;49.474;2024-03-02T08:45:33;37.42;;;10.65;;
65387;SDS011;51992;53.528;49.474;2024-03-02T08:48:00;31.95;;;9.23;;
65387;SDS011;51992;53.528;49.474;2024-03-02T08:50:25;18.40;;;9.70;;
65387;SDS011;51992;53.528;49.474;2024-03-02T08:52:51;14.93;;;8.52;;
65387;SDS011;51992;53.528;49.474;2024-03-02T08:55:17;12.07;;;8.07;;
65387;SDS011;51992;53.528;49.474;2024-03-02T08:57:43;16.15;;;8.05;;
65387;SDS011;51992;53.528;49.474;2024-03-02T09:00:09;14.25;;;8.75;;
65387;SDS011;51992;53.528;49.474;2024-03-02T09:02:34;12.27;;;8.32;;
65387;SDS011;51992;53.528;49.474;2024-03-02T09:05:00;16.27;;;9.30;;
65387;SDS011;51992;53.528;49.474;2024-03-02T09:07:26;12.25;;;9.38;;
65387;SDS011;51992;53.528;49.474;2024-03-02T09:09:52;16.80;;;8.55;;
65387;SDS011;51992;53.528;49.474;2024-03-02T09:12:18;13.98;;;8.68;;
65387;SDS011;51992;53.528;49.474;2024-03-02T09:14:44;15.10;;;9.13;;
65387;SDS011;51992;53.528;49.474;2024-03-02T09:17:10;8.35;;;5.47;;
65387;SDS011;51992;53.528;49.474;2024-03-02T09:19:37;7.50;;;5.78;;
65387;SDS011;51992;53.528;49.474;2024-03-02T09:22:02;8.02;;;4.72;;
65387;SDS011;51992;53.528;49.474;2024-03-02T09:24:33;10.85;;;5.57;;
65387;SDS011;51992;53.528;49.474;2024-03-02T09:26:59;16.85;;;6.70;;
65387;SDS011;51992;53.528;49.474;2024-03-02T09:29:25;32.55;;;7.68;;
65387;SDS011;51992;53.528;49.474;2024-03-02T09:31:51;23.55;;;7.03;;
65387;SDS011;51992;53.528;49.474;2024-03-02T09:34:17;20.42;;;6.82;;
65387;SDS011;51992;53.528;49.474;2024-03-02T09:36:43;29.67;;;13.55;;
65387;SDS011;51992;53.528;49.474;2024-03-02T09:39:08;29.48;;;15.82;;
65387;SDS011;51992;53.528;49.474;2024-03-02T09:41:37;37.67;;;17.50;;
65387;SDS011;51992;53.528;49.474;2024-03-02T09:44:04;37.53;;;16.98;;
65387;SDS011;51992;53.528;49.474;2024-03-02T09:46:30;26.33;;;16.55;;
65387;SDS011;51992;53.528;49.474;2024-03-02T09:48:55;28.13;;;16.30;;
65387;SDS011;51992;53.528;49.474;2024-03-02T09:51:22;30.90;;;15.85;;
65387;SDS011;51992;53.528;49.474;2024-03-02T09:53:48;26.67;;;15.95;;
65387;SDS011;51992;53.528;49.474;2024-03-02T09:56:14;36.35;;;17.02;;
65387;SDS011;51992;53.528;49.474;2024-03-02T09:58:43;28.90;;;16.27;;
65387;SDS011;51992;53.528;49.474;2024-03-02T10:01:09;31.02;;;16.05;;
65387;SDS011;51992;53.528;49.474;2024-03-02T10:03:38;29.30;;;16.52;;
65387;SDS011;51992;53.528;49.474;2024-03-02T10:06:26;29.63;;;16.13;;
65387;SDS011;51992;53.528;49.474;2024-03-02T10:08:52;33.47;;;16.92;;
65387;SDS011;51992;53.528;49.474;2024-03-02T10:11:25;28.02;;;16.55;;
65387;SDS011;51992;53.528;49.474;2024-03-02T10:14:03;30.00;;;15.52;;
65387;SDS011;51992;53.528;49.474;2024-03-02T10:16:29;31.27;;;15.68;;
65387;SDS011;51992;53.528;49.474;2024-03-02T10:18:55;31.15;;;15.05;;
65387;SDS011;51992;53.528;49.474;2024-03-02T10:21:20;27.20;;;15.77;;
65387;SDS011;51992;53.528;49.474;2024-03-02T10:23:49;23.77;;;14.70;;
65387;SDS011;51992;53.528;49.474;2024-03-02T10:26:18;32.33;;;16.30;;
65387;SDS011;51992;53.528;49.474;2024-03-02T10:28:47;29.42;;;16.25;;
65387;SDS011;51992;53.528;49.474;2024-03-02T10:31:13;24.90;;;15.50;;
65387;SDS011;51992;53.528;49.474;2024-03-02T10:33:39;22.63;;;14.73;;
65387;SDS011;51992;53.528;49.474;2024-03-02T10:36:05;22.88;;;14.07;;
65387;SDS011;51992;53.528;49.474;2024-03-02T10:38:31;24.67;;;13.75;;
65387;SDS011;51992;53.528;49.474;2024-03-02T10:40:57;24.65;;;13.80;;
65387;SDS011;51992;53.528;49.474;2024-03-02T10:43:25;26.35;;;13.70;;
65387;SDS011;51992;53.528;49.474;2024-03-02T10:45:51;24.90;;;14.25;;
65387;SDS011;51992;53.528;49.474;2024-03-02T10:48:17;21.38;;;15.07;;
65387;SDS011;51992;53.528;49.474;2024-03-02T10:50:43;24.00;;;14.95;;
65387;SDS011;51992;53.528;49.474;2024-03-02T10:53:09;24.25;;;15.00;;
65387;SDS011;51992;53.528;49.474;2024-03-02T10:55:35;34.03;;;17.25;;
65387;SDS011;51992;53.528;49.474;2024-03-02T10:58:01;29.48;;;18.70;;
65387;SDS011;51992;53.528;49.474;2024-03-02T11:00:31;28.30;;;18.50;;
65387;SDS011;51992;53.528;49.474;2024-03-02T11:03:07;31.33;;;17.65;;
65387;SDS011;51992;53.528;49.474;2024-03-02T11:05:38;33.25;;;18.00;;
65387;SDS011;51992;53.528;49.474;2024-03-02T11:08:08;26.80;;;17.13;;
65387;SDS011;51992;53.528;49.474;2024-03-02T11:10:35;31.45;;;17.13;;
65387;SDS011;51992;53.528;49.474;2024-03-02T11:13:03;26.50;;;17.17;;
65387;SDS011;51992;53.528;49.474;2024-03-02T11:15:30;29.75;;;17.85;;
65387;SDS011;51992;53.528;49.474;2024-03-02T11:17:56;27.23;;;15.93;;
65387;SDS011;51992;53.528;49.474;2024-03-02T11:20:22;24.35;;;15.63;;
65387;SDS011;51992;53.528;49.474;2024-03-02T11:22:48;26.75;;;16.50;;
65387;SDS011;51992;53.528;49.474;2024-03-02T11:25:24;25.73;;;15.60;;
65387;SDS011;51992;53.528;49.474;2024-03-02T11:32:57;27.50;;;16.95;;
65387;SDS011;51992;53.528;49.474;2024-03-02T11:35:26;24.52;;;17.23;;
65387;SDS011;51992;53.528;49.474;2024-03-02T11:37:55;27.30;;;15.77;;
65387;SDS011;51992;53.528;49.474;2024-03-02T11:40:24;28.63;;;15.95;;
65387;SDS011;51992;53.528;49.474;2024-03-02T11:42:50;25.27;;;16.38;;
65387;SDS011;51992;53.528;49.474;2024-03-02T11:45:16;25.17;;;17.00;;
65387;SDS011;51992;53.528;49.474;2024-03-02T11:47:53;25.63;;;17.60;;
65387;SDS011;51992;53.528;49.474;2024-03-02T11:50:29;29.42;;;18.08;;
65387;SDS011;51992;53.528;49.474;2024-03-02T11:52:58;26.90;;;16.25;;
65387;SDS011;51992;53.528;49.474;2024-03-02T11:55:25;27.55;;;17.77;;
65387;SDS011;51992;53.528;49.474;2024-03-02T11:57:54;31.75;;;18.02;;
65387;SDS011;51992;53.528;49.474;2024-03-02T12:00:20;36.85;;;17.95;;
65387;SDS011;51992;53.528;49.474;2024-03-02T12:02:47;45.00;;;17.60;;
65387;SDS011;51992;53.528;49.474;2024-03-02T12:05:16;46.97;;;18.52;;
65387;SDS011;51992;53.528;49.474;2024-03-02T12:07:42;39.25;;;17.63;;
65387;SDS011;51992;53.528;49.474;2024-03-02T12:10:08;38.92;;;17.17;;
65387;SDS011;51992;53.528;49.474;2024-03-02T12:12:34;34.08;;;16.88;;
65387;SDS011;51992;53.528;49.474;2024-03-02T12:15:00;32.90;;;16.85;;
65387;SDS011;51992;53.528;49.474;2024-03-02T12:17:26;30.45;;;16.70;;
65387;SDS011;51992;53.528;49.474;2024-03-02T12:19:52;25.73;;;16.25;;
65387;SDS011;51992;53.528;49.474;2024-03-02T12:22:18;24.10;;;16.45;;
65387;SDS011;51992;53.528;49.474;2024-03-02T12:24:44;19.70;;;15.15;;
65387;SDS011;51992;53.528;49.474;2024-03-02T12:27:13;22.67;;;15.55;;
65387;SDS011;51992;53.528;49.474;2024-03-02T12:29:40;24.67;;;16.52;;
65387;SDS011;51992;53.528;49.474;2024-03-02T12:32:06;26.50;;;15.60;;
65387;SDS011;51992;53.528;49.474;2024-03-02T12:34:32;22.83;;;16.35;;
65387;SDS011;51992;53.528;49.474;2024-03-02T12:36:58;26.08;;;17.10;;
65387;SDS011;51992;53.528;49.474;2024-03-02T12:39:24;26.20;;;17.90;;
65387;SDS011;51992;53.528;49.474;2024-03-02T12:41:50;27.52;;;17.70;;
65387;SDS011;51992;53.528;49.474;2024-03-02T12:44:16;21.95;;;16.45;;
65387;SDS011;51992;53.528;49.474;2024-03-02T12:46:42;29.50;;;16.38;;
65387;SDS011;51992;53.528;49.474;2024-03-02T12:49:09;30.15;;;17.35;;
65387;SDS011;51992;53.528;49.474;2024-03-02T12:51:38;29.25;;;16.67;;
65387;SDS011;51992;53.528;49.474;2024-03-02T12:54:06;23.90;;;17.67;;
65387;SDS011;51992;53.528;49.474;2024-03-02T12:56:32;22.58;;;16.13;;
65387;SDS011;51992;53.528;49.474;2024-03-02T12:58:58;24.15;;;17.08;;
65387;SDS011;51992;53.528;49.474;2024-03-02T13:01:25;27.58;;;16.67;;
65387;SDS011;51992;53.528;49.474;2024-03-02T13:03:50;29.17;;;17.33;;
65387;SDS011;51992;53.528;49.474;2024-03-02T13:06:17;26.42;;;17.85;;
65387;SDS011;51992;53.528;49.474;2024-03-02T13:08:44;27.67;;;16.70;;
65387;SDS011;51992;53.528;49.474;2024-03-02T13:11:10;30.27;;;18.00;;
65387;SDS011;51992;53.528;49.474;2024-03-02T13:13:35;47.03;;;18.08;;
65387;SDS011;51992;53.528;49.474;2024-03-02T13:16:01;36.05;;;19.25;;
65387;SDS011;51992;53.528;49.474;2024-03-02T13:18:28;31.38;;;17.40;;
65387;SDS011;51992;53.528;49.474;2024-03-02T13:20:54;29.50;;;17.52;;
65387;SDS011;51992;53.528;49.474;2024-03-02T13:23:21;24.27;;;16.88;;
65387;SDS011;51992;53.528;49.474;2024-03-02T13:25:47;28.85;;;17.13;;
65387;SDS011;51992;53.528;49.474;2024-03-02T13:28:13;26.80;;;17.13;;
65387;SDS011;51992;53.528;49.474;2024-03-02T13:30:39;25.88;;;16.27;;
65387;SDS011;51992;53.528;49.474;2024-03-02T13:33:04;23.77;;;16.23;;
65387;SDS011;51992;53.528;49.474;2024-03-02T13:35:30;27.65;;;15.73;;
65387;SDS011;51992;53.528;49.474;2024-03-02T13:37:56;26.63;;;16.15;;
65387;SDS011;51992;53.528;49.474;2024-03-02T13:40:22;25.80;;;15.75;;
65387;SDS011;51992;53.528;49.474;2024-03-02T13:42:49;26.25;;;15.23;;
65387;SDS011;51992;53.528;49.474;2024-03-02T13:45:16;23.85;;;15.40;;
65387;SDS011;51992;53.528;49.474;2024-03-02T13:47:43;25.48;;;15.90;;
65387;SDS011;51992;53.528;49.474;2024-03-02T13:50:09;25.30;;;15.30;;
65387;SDS011;51992;53.528;49.474;2024-03-02T13:52:35;25.40;;;16.23;;
65387;SDS011;51992;53.528;49.474;2024-03-02T13:55:02;23.42;;;16.15;;
65387;SDS011;51992;53.528;49.474;2024-03-02T13:57:28;27.95;;;16.92;;
65387;SDS011;51992;53.528;49.474;2024-03-02T13:59:53;21.52;;;16.35;;
65387;SDS011;51992;53.528;49.474;2024-03-02T14:02:20;27.45;;;17.05;;
65387;SDS011;51992;53.528;49.474;2024-03-02T14:04:45;23.60;;;16.40;;
65387;SDS011;51992;53.528;49.474;2024-03-02T14:07:13;29.25;;;16.27;;
65387;SDS011;51992;53.528;49.474;2024-03-02T14:09:39;26.27;;;16.08;;
65387;SDS011;51992;53.528;49.474;2024-03-02T14:12:05;23.48;;;15.50;;